createdAt,value
2019-04-06T00:00:38.104Z,99154.20
2019-04-06T00:03:06.632Z,99146.56
2019-04-06T00:05:35.496Z,99157.38
2019-04-06T00:08:04.059Z,99150.47
2019-04-06T00:10:32.560Z,99147.11
2019-04-06T00:13:01.131Z,99149.64
2019-04-06T00:15:29.660Z,99153.20
2019-04-06T00:17:58.123Z,99151.33
2019-04-06T00:20:26.642Z,99147.71
2019-04-06T00:22:55.151Z,99145.81
2019-04-06T00:25:23.623Z,99142.84
2019-04-06T00:27:52.123Z,99144.46
2019-04-06T00:30:21.925Z,99138.88
2019-04-06T00:32:52.024Z,99135.34
2019-04-06T00:35:20.518Z,99135.67
2019-04-06T00:37:48.975Z,99134.94
2019-04-06T00:40:17.571Z,99135.16
2019-04-06T00:42:46.072Z,99133.72
2019-04-06T00:45:14.771Z,99133.83
2019-04-06T00:47:43.299Z,99135.61
2019-04-06T00:50:12.052Z,99136.58
2019-04-06T00:52:40.509Z,99133.59
2019-04-06T00:55:09.121Z,99120.73
2019-04-06T00:57:37.764Z,99128.14
2019-04-06T01:00:07.759Z,99129.47
2019-04-06T01:02:36.289Z,99127.23
2019-04-06T01:05:07.206Z,99130.11
2019-04-06T01:07:35.647Z,99127.23
2019-04-06T01:10:05.344Z,99131.20
2019-04-06T01:12:33.850Z,99126.15
2019-04-06T01:15:02.364Z,99126.48
2019-04-06T01:17:30.821Z,99133.14
2019-04-06T01:19:59.762Z,99125.51
2019-04-06T01:22:28.220Z,99122.87
2019-04-06T01:24:56.763Z,99113.80
2019-04-06T01:27:25.264Z,99119.20
2019-04-06T01:29:53.723Z,99120.39
2019-04-06T01:32:22.195Z,99122.00
2019-04-06T01:34:50.849Z,99120.69
2019-04-06T01:37:19.307Z,99126.26
2019-04-06T01:39:47.774Z,99130.84
2019-04-06T01:42:16.267Z,99129.12
2019-04-06T01:44:44.739Z,99132.87
2019-04-06T01:47:13.179Z,99128.61
2019-04-06T01:49:41.668Z,99131.37
2019-04-06T01:52:10.126Z,99132.16
2019-04-06T01:54:38.590Z,99126.36
2019-04-06T01:57:07.081Z,99125.11
2019-04-06T01:59:35.550Z,99132.63
2019-04-06T02:02:08.742Z,99131.14
2019-04-06T02:04:37.344Z,99128.68
2019-04-06T02:07:06.073Z,99126.25
2019-04-06T02:09:34.526Z,99127.02
2019-04-06T02:12:03.029Z,99125.36
2019-04-06T02:14:31.483Z,99125.17
2019-04-06T02:16:59.941Z,99127.05
2019-04-06T02:19:28.474Z,99129.30
2019-04-06T02:21:56.921Z,99125.84
2019-04-06T02:24:25.412Z,99124.37
2019-04-06T02:26:53.891Z,99127.93
2019-04-06T02:29:22.424Z,99126.55
2019-04-06T02:32:08.735Z,99125.69
2019-04-06T02:34:54.876Z,99121.25
2019-04-06T02:37:40.363Z,99129.59
2019-04-06T02:40:19.483Z,99123.66
2019-04-06T02:42:49.755Z,99124.52
2019-04-06T02:45:18.208Z,99126.61
2019-04-06T02:47:46.686Z,99125.44
2019-04-06T02:50:15.321Z,99125.42
2019-04-06T02:52:43.762Z,99120.72
2019-04-06T02:55:12.452Z,99124.53
2019-04-06T02:57:41.098Z,99120.73
2019-04-06T03:00:09.829Z,99124.37
2019-04-06T03:02:38.849Z,99131.05
2019-04-06T03:05:07.987Z,99127.14
2019-04-06T03:07:36.527Z,99129.81
2019-04-06T03:10:06.320Z,99131.86
2019-04-06T03:12:35.051Z,99127.88
2019-04-06T03:15:03.847Z,99132.16
2019-04-06T03:17:32.305Z,99126.17
2019-04-06T03:20:00.872Z,99122.01
2019-04-06T03:22:29.364Z,99125.10
2019-04-06T03:24:57.889Z,99124.14
2019-04-06T03:27:26.437Z,99114.73
2019-04-06T03:29:58.092Z,99118.06
2019-04-06T03:32:25.241Z,99115.12
2019-04-06T03:34:53.815Z,99111.84
2019-04-06T03:37:22.257Z,99120.59
2019-04-06T03:39:50.743Z,99117.55
2019-04-06T03:42:19.218Z,99122.78
2019-04-06T03:44:47.680Z,99125.37
2019-04-06T03:47:16.141Z,99127.27
2019-04-06T03:49:44.635Z,99123.08
2019-04-06T03:52:13.088Z,99119.09
2019-04-06T03:54:41.540Z,99119.05
2019-04-06T03:57:16.154Z,99122.60
2019-04-06T03:59:40.213Z,99112.04
2019-04-06T04:02:08.669Z,99120.72
2019-04-06T04:04:37.169Z,99123.08
2019-04-06T04:07:05.630Z,99121.51
2019-04-06T04:09:34.143Z,99122.01
2019-04-06T04:12:02.659Z,99119.22
2019-04-06T04:14:31.108Z,99121.12
2019-04-06T04:16:59.621Z,99126.30
2019-04-06T04:19:28.078Z,99124.08
2019-04-06T04:21:56.537Z,99125.75
2019-04-06T04:24:25.006Z,99120.16
2019-04-06T04:26:53.498Z,99123.77
2019-04-06T04:29:21.962Z,99124.70
2019-04-06T04:31:50.422Z,99130.77
2019-04-06T04:34:18.910Z,99139.66
2019-04-06T04:36:47.393Z,99129.02
2019-04-06T04:39:15.829Z,99138.05
2019-04-06T04:41:44.316Z,99145.11
2019-04-06T04:44:12.901Z,99144.09
2019-04-06T04:46:41.409Z,99150.62
2019-04-06T04:49:09.973Z,99156.31
2019-04-06T04:51:38.427Z,99142.14
2019-04-06T04:54:07.095Z,99149.77
2019-04-06T04:56:35.671Z,99144.45
2019-04-06T04:59:04.215Z,99146.00
2019-04-06T05:01:32.728Z,99146.60
2019-04-06T05:04:01.288Z,99155.13
2019-04-06T05:06:29.749Z,99161.70
2019-04-06T05:08:58.211Z,99160.78
2019-04-06T05:11:26.703Z,99165.14
2019-04-06T05:14:32.003Z,99165.58
2019-04-06T05:17:00.497Z,99166.77
2019-04-06T05:19:28.984Z,99170.52
2019-04-06T05:21:57.424Z,99172.06
2019-04-06T05:24:25.917Z,99169.13
2019-04-06T05:26:54.377Z,99170.87
2019-04-06T05:29:22.835Z,99179.77
2019-04-06T05:31:51.395Z,99188.32
2019-04-06T05:34:19.856Z,99182.61
2019-04-06T05:36:48.316Z,99180.69
2019-04-06T05:39:16.804Z,99179.81
2019-04-06T05:41:45.264Z,99182.42
2019-04-06T05:44:13.720Z,99189.86
2019-04-06T05:46:42.211Z,99190.06
2019-04-06T05:49:10.790Z,99199.02
2019-04-06T05:51:39.417Z,99193.89
2019-04-06T05:54:07.951Z,99203.23
2019-04-06T05:56:36.408Z,99202.70
2019-04-06T05:59:04.862Z,99201.32
2019-04-06T06:01:33.542Z,99200.82
2019-04-06T06:04:02.141Z,99206.50
2019-04-06T06:06:30.596Z,99211.94
2019-04-06T06:08:59.095Z,99209.69
2019-04-06T06:11:27.551Z,99212.02
2019-04-06T06:13:56.040Z,99207.53
2019-04-06T06:16:25.377Z,99207.77
2019-04-06T06:18:53.816Z,99211.73
2019-04-06T06:21:22.281Z,99208.91
2019-04-06T06:23:50.771Z,99212.50
2019-04-06T06:26:19.302Z,99213.83
2019-04-06T06:28:47.760Z,99208.40
2019-04-06T06:31:16.338Z,99208.40
2019-04-06T06:33:44.902Z,99200.22
2019-04-06T06:36:13.523Z,99213.58
2019-04-06T06:38:42.008Z,99205.19
2019-04-06T06:41:10.473Z,99211.55
2019-04-06T06:43:38.999Z,99211.78
2019-04-06T06:46:07.942Z,99209.84
2019-04-06T06:48:36.522Z,99205.79
2019-04-06T06:51:05.057Z,99209.79
2019-04-06T06:53:33.582Z,99213.72
2019-04-06T06:56:02.405Z,99212.88
2019-04-06T06:58:30.996Z,99208.25
2019-04-06T07:00:59.510Z,99209.34
2019-04-06T07:03:27.947Z,99211.91
2019-04-06T07:05:56.410Z,99215.00
2019-04-06T07:08:25.130Z,99217.52
2019-04-06T07:10:53.866Z,99218.63
2019-04-06T07:13:22.435Z,99221.20
2019-04-06T07:15:51.188Z,99210.66
2019-04-06T07:18:19.782Z,99216.14
2019-04-06T07:20:48.289Z,99213.78
2019-04-06T07:23:16.886Z,99211.60
2019-04-06T07:25:56.216Z,99210.92
2019-04-06T07:28:15.730Z,99213.02
2019-04-06T07:30:44.393Z,99211.97
2019-04-06T07:33:13.226Z,99211.75
2019-04-06T07:35:41.631Z,99210.62
2019-04-06T07:38:10.126Z,99208.41
2019-04-06T07:40:38.675Z,99217.91
2019-04-06T07:43:07.524Z,99220.77
2019-04-06T07:45:36.327Z,99218.59
2019-04-06T07:48:04.980Z,99214.63
2019-04-06T07:50:33.491Z,99218.81
2019-04-06T07:53:02.048Z,99216.37
2019-04-06T07:55:30.769Z,99216.72
2019-04-06T07:57:59.558Z,99217.94
2019-04-06T08:00:28.332Z,99211.85
2019-04-06T08:02:56.855Z,99215.92
2019-04-06T08:05:25.573Z,99214.83
2019-04-06T08:07:54.275Z,99202.34
2019-04-06T08:10:22.796Z,99209.00
2019-04-06T08:12:51.252Z,99206.59
2019-04-06T08:15:19.940Z,99209.31
2019-04-06T08:17:48.525Z,99210.97
2019-04-06T08:20:17.138Z,99202.41
2019-04-06T08:22:45.697Z,99210.19
2019-04-06T08:25:14.349Z,99206.48
2019-04-06T08:27:42.794Z,99208.16
2019-04-06T08:30:11.726Z,99201.33
2019-04-06T08:32:40.179Z,99198.36
2019-04-06T08:35:09.071Z,99195.70
2019-04-06T08:37:37.631Z,99199.91
2019-04-06T08:40:07.429Z,99197.09
2019-04-06T08:42:35.952Z,99195.61
2019-04-06T08:45:06.403Z,99184.86
2019-04-06T08:47:34.927Z,99189.98
2019-04-06T08:50:05.075Z,99185.39
2019-04-06T08:52:33.697Z,99188.12
2019-04-06T08:55:02.152Z,99180.41
2019-04-06T08:57:30.613Z,99183.67
2019-04-06T08:59:59.189Z,99183.81
2019-04-06T09:02:28.568Z,99185.39
2019-04-06T09:04:57.272Z,99186.16
2019-04-06T09:07:24.905Z,99180.41
2019-04-06T09:09:53.362Z,99180.41
2019-04-06T09:12:41.076Z,99181.16
2019-04-06T09:15:49.530Z,99184.64
2019-04-06T09:21:11.287Z,99175.21
2019-04-06T09:26:33.205Z,99166.95
2019-04-06T09:29:01.690Z,99169.17
2019-04-06T09:31:30.306Z,99160.47
2019-04-06T09:34:00.330Z,99163.20
2019-04-06T09:44:54.488Z,99143.89
2019-04-06T09:47:42.285Z,99142.09
2019-04-06T09:50:30.016Z,99137.22
2019-04-06T09:56:12.552Z,99134.52
2019-04-06T09:59:00.141Z,99124.39
2019-04-06T10:04:23.641Z,99114.43
2019-04-06T10:07:30.559Z,99120.03
2019-04-06T10:10:18.256Z,99122.22
2019-04-06T10:13:05.842Z,99110.48
2019-04-06T10:15:53.764Z,99102.70
2019-04-06T10:18:41.308Z,99109.94
2019-04-06T10:21:28.923Z,99112.42
2019-04-06T10:27:05.696Z,99112.91
2019-04-06T10:32:42.461Z,99111.19
2019-04-06T10:38:38.568Z,99106.63
2019-04-06T10:44:15.351Z,99105.12
2019-04-06T10:47:02.921Z,99101.98
2019-04-06T10:49:50.535Z,99103.14
2019-04-06T10:52:38.157Z,99107.94
2019-04-06T10:55:46.585Z,99109.70
2019-04-06T10:58:34.246Z,99101.80
2019-04-06T11:01:41.246Z,99099.41
2019-04-06T11:04:28.806Z,99103.32
2019-04-06T11:07:35.670Z,99096.73
2019-04-06T11:10:44.047Z,99086.80
2019-04-06T11:13:31.724Z,99075.62
2019-04-06T11:16:19.382Z,99083.84
2019-04-06T11:19:07.026Z,99072.48
2019-04-06T11:21:54.673Z,99066.39
2019-04-06T11:27:17.712Z,99066.29
2019-04-06T11:30:13.159Z,99063.08
2019-04-06T11:40:45.184Z,99057.41
2019-04-06T11:46:14.305Z,99054.64
2019-04-06T11:49:01.975Z,99060.59
2019-04-06T11:51:49.649Z,99051.45
2019-04-06T11:54:37.521Z,99049.56
2019-04-06T11:57:44.450Z,99054.46
2019-04-06T12:00:52.819Z,99052.23
2019-04-06T12:03:40.500Z,99053.86
2019-04-06T12:09:17.261Z,99046.84
2019-04-06T12:12:04.966Z,99044.45
2019-04-06T12:14:53.055Z,99047.63
2019-04-06T12:17:42.034Z,99047.31
2019-04-06T12:20:29.873Z,99052.27
2019-04-06T12:26:06.569Z,99051.41
2019-04-06T12:29:16.133Z,99057.83
2019-04-06T12:34:38.170Z,99052.53
2019-04-06T12:40:14.782Z,99055.81
2019-04-06T12:43:02.364Z,99045.38
2019-04-06T12:45:50.720Z,99043.97
2019-04-06T12:51:47.785Z,99043.92
2019-04-06T12:54:35.358Z,99036.63
2019-04-06T12:57:23.059Z,99040.66
2019-04-06T13:00:10.753Z,99034.42
2019-04-06T13:02:58.588Z,99047.98
2019-04-06T13:05:46.177Z,99050.45
2019-04-06T13:08:33.778Z,99046.72
2019-04-06T13:14:10.871Z,99039.89
2019-04-06T13:16:59.890Z,99038.84
2019-04-06T13:19:47.530Z,99039.05
2019-04-06T13:25:45.114Z,99038.41
2019-04-06T13:28:32.702Z,99045.27
2019-04-06T13:31:20.308Z,99043.55
2019-04-06T13:34:08.306Z,99042.73
2019-04-06T13:36:56.217Z,99040.42
2019-04-06T13:42:32.912Z,99037.59
2019-04-06T13:48:09.607Z,99038.77
2019-04-06T13:50:57.187Z,99034.63
2019-04-06T13:56:51.054Z,99033.34
2019-04-06T14:02:27.991Z,99032.02
2019-04-06T14:05:15.518Z,99029.50
2019-04-06T14:08:03.264Z,99027.31
2019-04-06T14:13:40.123Z,99026.80
2019-04-06T14:22:11.529Z,99023.13
2019-04-06T14:24:59.109Z,99017.14
2019-04-06T14:27:46.923Z,99015.91
2019-04-06T14:30:55.548Z,99016.14
2019-04-06T14:33:45.100Z,99019.70
2019-04-06T14:36:33.975Z,99013.38
2019-04-06T14:39:21.896Z,99011.97
2019-04-06T14:44:58.591Z,99002.40
2019-04-06T14:47:46.238Z,99001.70
2019-04-06T14:50:34.197Z,98995.15
2019-04-06T14:53:21.841Z,98992.84
2019-04-06T14:56:09.526Z,98986.98
2019-04-06T14:58:57.277Z,98978.92
2019-04-06T15:01:53.403Z,98977.98
2019-04-06T15:04:34.395Z,98972.07
2019-04-06T15:07:21.997Z,98973.79
2019-04-06T15:10:09.737Z,98968.80
2019-04-06T15:18:27.946Z,98972.74
2019-04-06T15:24:05.132Z,98969.28
2019-04-06T15:26:54.144Z,98964.47
2019-04-06T15:29:41.960Z,98966.13
2019-04-06T15:32:29.483Z,98962.67
2019-04-06T15:35:17.441Z,98953.89
2019-04-06T15:38:05.033Z,98960.08
2019-04-06T15:40:52.640Z,98955.00
2019-04-06T15:43:40.215Z,98955.18
2019-04-06T15:46:47.233Z,98944.54
2019-04-06T15:49:34.816Z,98946.73
2019-04-06T15:55:01.704Z,98947.25
2019-04-06T15:57:49.258Z,98942.57
2019-04-06T16:00:57.659Z,98939.64
2019-04-06T16:03:45.233Z,98940.59
2019-04-06T16:06:32.844Z,98934.61
2019-04-06T16:09:20.422Z,98933.44
2019-04-06T16:12:08.049Z,98927.14
2019-04-06T16:14:55.619Z,98933.73
2019-04-06T16:20:44.093Z,98924.09
2019-04-06T16:23:32.615Z,98913.78
2019-04-06T16:26:20.262Z,98914.09
2019-04-06T16:29:07.832Z,98915.20
2019-04-06T16:31:55.500Z,98912.64
2019-04-06T16:37:51.554Z,98912.06
2019-04-06T16:40:39.319Z,98915.26
2019-04-06T16:46:02.584Z,98911.86
2019-04-06T16:48:50.283Z,98913.13
2019-04-06T16:51:37.915Z,98911.14
2019-04-06T16:54:25.493Z,98911.23
2019-04-06T16:59:48.657Z,98908.27
2019-04-06T17:02:55.426Z,98909.02
2019-04-06T17:05:43.023Z,98905.97
2019-04-06T17:08:30.602Z,98904.91
2019-04-06T17:11:18.581Z,98906.58
2019-04-06T17:14:06.114Z,98901.45
2019-04-06T17:16:53.725Z,98904.66
2019-04-06T17:22:30.580Z,98901.13
2019-04-06T17:25:18.159Z,98905.46
2019-04-06T17:28:06.555Z,98901.61
2019-04-06T17:30:55.653Z,98902.69
2019-04-06T17:37:01.647Z,98906.43
2019-04-06T17:39:49.392Z,98907.12
2019-04-06T17:42:37.015Z,98913.20
2019-04-06T17:45:45.380Z,98914.53
2019-04-06T17:48:33.257Z,98911.87
2019-04-06T17:51:23.459Z,98916.78
2019-04-06T17:54:11.226Z,98915.42
2019-04-06T17:59:48.399Z,98915.31
2019-04-06T18:02:46.861Z,98918.40
2019-04-06T18:05:46.290Z,98916.43
2019-04-06T18:11:43.869Z,98918.94
2019-04-06T18:14:12.357Z,98912.73
2019-04-06T18:17:00.004Z,98904.68
2019-04-06T18:19:28.470Z,98907.91
2019-04-06T18:21:57.296Z,98906.73
2019-04-06T18:27:19.944Z,98907.66
2019-04-06T18:35:02.229Z,98914.42
2019-04-06T18:37:51.448Z,98910.95
2019-04-06T18:42:59.803Z,98909.95
2019-04-06T18:48:19.164Z,98906.91
2019-04-06T18:50:48.871Z,98909.66
2019-04-06T18:53:17.352Z,98911.66
2019-04-06T18:55:45.819Z,98911.28
2019-04-06T18:58:33.528Z,98920.22
2019-04-06T19:01:21.363Z,98916.40
2019-04-06T19:04:09.143Z,98922.02
2019-04-06T19:17:53.325Z,98922.53
2019-04-06T19:20:42.731Z,98923.78
2019-04-06T19:23:11.984Z,98921.55
2019-04-06T19:25:41.320Z,98923.95
2019-04-06T19:30:44.438Z,98925.53
2019-04-06T19:33:23.282Z,98933.30
2019-04-06T19:35:43.891Z,98935.34
2019-04-06T19:38:12.421Z,98931.59
2019-04-06T19:43:34.265Z,98937.44
2019-04-06T19:46:23.615Z,98929.61
2019-04-06T19:48:53.645Z,98930.25
2019-04-06T19:51:22.115Z,98931.27
2019-04-06T19:53:51.098Z,98935.97
2019-04-06T19:56:21.143Z,98938.91
2019-04-06T19:58:50.967Z,98936.03
2019-04-06T20:04:13.219Z,98934.47
2019-04-06T20:06:42.104Z,98935.70
2019-04-06T20:09:11.926Z,98929.56
2019-04-06T20:11:40.388Z,98925.72
2019-04-06T20:19:36.368Z,98920.47
2019-04-06T20:22:25.555Z,98920.39
2019-04-06T20:27:27.746Z,98917.09
2019-04-06T20:29:56.371Z,98915.39
2019-04-06T20:35:00.804Z,98911.33
2019-04-06T20:37:29.299Z,98909.91
2019-04-06T20:39:57.766Z,98919.36
2019-04-06T20:42:26.227Z,98911.50
2019-04-06T20:47:29.121Z,98920.30
2019-04-06T20:49:58.122Z,98920.30
2019-04-06T20:52:27.802Z,98919.74
2019-04-06T20:54:56.478Z,98916.31
2019-04-06T20:57:26.567Z,98913.30
2019-04-06T20:59:55.114Z,98917.60
2019-04-06T21:02:23.556Z,98921.95
2019-04-06T21:05:11.411Z,98923.55
2019-04-06T21:07:40.431Z,98923.05
2019-04-06T21:10:50.809Z,98917.81
2019-04-06T21:13:20.510Z,98922.27
2019-04-06T21:15:48.990Z,98918.11
2019-04-06T21:20:51.771Z,98910.44
2019-04-06T21:23:20.700Z,98915.38
2019-04-06T21:25:50.841Z,98903.63
2019-04-06T21:28:20.813Z,98918.89
2019-04-06T21:33:25.325Z,98920.60
2019-04-06T21:36:13.155Z,98924.29
2019-04-06T21:38:41.650Z,98921.55
2019-04-06T21:41:10.158Z,98933.90
2019-04-06T21:43:39.004Z,98926.91
2019-04-06T21:46:28.110Z,98925.36
2019-04-06T21:51:50.304Z,98924.81
2019-04-06T21:57:12.901Z,98924.81
2019-04-06T22:02:56.520Z,98920.69
2019-04-06T22:07:59.374Z,98923.18
2019-04-06T22:13:02.585Z,98912.75
2019-04-06T22:18:25.836Z,98913.22
2019-04-06T22:21:13.540Z,98912.54
2019-04-06T22:29:09.810Z,98913.27
2019-04-06T22:31:38.369Z,98909.36
2019-04-06T22:34:07.131Z,98906.48
2019-04-06T22:36:37.072Z,98905.32
2019-04-06T22:39:45.951Z,98906.03
2019-04-06T22:42:15.652Z,98910.34
2019-04-06T22:44:44.110Z,98903.61
2019-04-06T22:47:12.911Z,98902.20
2019-04-06T22:49:43.271Z,98904.86
2019-04-06T22:55:45.949Z,98898.43
2019-04-06T22:58:14.578Z,98893.41
2019-04-06T23:01:22.886Z,98892.97
2019-04-06T23:04:10.497Z,98894.50
2019-04-06T23:09:28.066Z,98888.69
2019-04-06T23:11:56.895Z,98893.96
2019-04-06T23:14:27.255Z,98895.30
2019-04-06T23:16:56.923Z,98895.85
2019-04-06T23:19:25.929Z,98888.78
2019-04-06T23:21:55.524Z,98894.14
2019-04-06T23:24:24.329Z,98899.16
2019-04-06T23:32:16.330Z,98901.50
2019-04-06T23:34:44.818Z,98901.11
2019-04-06T23:37:13.908Z,98900.08
2019-04-06T23:39:43.507Z,98902.73
2019-04-06T23:42:12.006Z,98898.14
2019-04-06T23:44:40.926Z,98894.56
2019-04-06T23:47:10.640Z,98899.05
2019-04-06T23:49:39.499Z,98899.44
2019-04-06T23:52:09.312Z,98903.59
2019-04-06T23:54:38.349Z,98908.47
2019-04-06T23:59:42.433Z,98903.69
